createdAt,value
2018-05-19T00:00:45.180Z,25.80
2018-05-19T00:03:11.344Z,20.77
2018-05-19T00:05:37.517Z,16.07
2018-05-19T00:08:03.706Z,19.57
2018-05-19T00:10:30.666Z,25.20
2018-05-19T00:12:57.624Z,23.47
2018-05-19T00:15:23.841Z,31.63
2018-05-19T00:17:50.781Z,18.00
2018-05-19T00:20:17.754Z,22.70
2018-05-19T00:22:50.035Z,21.80
2018-05-19T00:25:16.268Z,21.90
2018-05-19T00:27:42.508Z,19.30
2018-05-19T00:30:08.789Z,17.70
2018-05-19T00:32:35.792Z,19.00
2018-05-19T00:35:02.010Z,19.50
2018-05-19T00:37:29.319Z,15.73
2018-05-19T00:39:56.182Z,22.83
2018-05-19T00:42:22.372Z,17.57
2018-05-19T00:44:48.538Z,23.07
2018-05-19T00:47:15.500Z,22.93
2018-05-19T00:49:42.451Z,20.30
2018-05-19T00:52:08.710Z,22.00
2018-05-19T00:54:47.362Z,24.43
2018-05-19T00:57:14.350Z,14.67
2018-05-19T00:59:40.550Z,20.53
2018-05-19T01:02:06.773Z,16.47
2018-05-19T01:04:33.724Z,19.13
2018-05-19T01:06:59.929Z,24.37
2018-05-19T01:09:26.126Z,22.73
2018-05-19T01:11:53.089Z,37.30
2018-05-19T01:14:19.349Z,20.50
2018-05-19T01:16:46.297Z,15.27
2018-05-19T01:19:13.255Z,18.83
2018-05-19T01:21:39.530Z,27.57
2018-05-19T01:24:05.818Z,18.43
2018-05-19T01:26:31.976Z,19.90
2018-05-19T01:28:58.298Z,19.00
2018-05-19T01:31:24.520Z,18.70
2018-05-19T01:33:51.132Z,15.57
2018-05-19T01:36:18.091Z,17.27
2018-05-19T01:38:44.470Z,16.20
2018-05-19T01:41:10.677Z,19.70
2018-05-19T01:43:36.909Z,14.30
2018-05-19T01:46:03.140Z,14.33
2018-05-19T01:48:29.384Z,20.23
2018-05-19T01:50:55.589Z,21.87
2018-05-19T01:53:21.782Z,20.80
2018-05-19T01:55:48.788Z,14.90
2018-05-19T01:58:14.992Z,21.13
2018-05-19T02:00:41.227Z,21.90
2018-05-19T02:03:07.388Z,19.07
2018-05-19T02:05:33.561Z,21.33
2018-05-19T02:07:59.777Z,17.63
2018-05-19T02:10:26.003Z,19.57
2018-05-19T02:12:52.924Z,21.13
2018-05-19T02:15:19.101Z,18.40
2018-05-19T02:17:45.273Z,16.63
2018-05-19T02:20:11.445Z,13.67
2018-05-19T02:22:37.639Z,15.33
2018-05-19T02:25:04.603Z,15.77
2018-05-19T02:27:31.509Z,15.73
2018-05-19T02:29:57.704Z,15.43
2018-05-19T02:32:24.243Z,20.87
2018-05-19T02:34:50.408Z,20.33
2018-05-19T02:37:16.584Z,13.70
2018-05-19T02:39:42.784Z,17.20
2018-05-19T02:42:09.420Z,16.73
2018-05-19T02:44:36.340Z,16.00
2018-05-19T02:47:02.567Z,20.30
2018-05-19T02:49:28.925Z,21.47
2018-05-19T02:51:55.469Z,17.03
2018-05-19T02:54:22.437Z,22.10
2018-05-19T02:56:48.643Z,19.67
2018-05-19T02:59:15.569Z,17.70
2018-05-19T03:01:41.814Z,17.17
2018-05-19T03:04:09.606Z,23.47
2018-05-19T03:06:35.823Z,18.40
2018-05-19T03:09:02.102Z,19.53
2018-05-19T03:11:28.346Z,15.90
2018-05-19T03:13:54.464Z,21.03
2018-05-19T03:16:20.649Z,19.43
2018-05-19T03:18:46.870Z,22.30
2018-05-19T03:21:13.069Z,16.33
2018-05-19T03:23:39.264Z,16.13
2018-05-19T03:26:05.416Z,20.30
2018-05-19T03:28:31.629Z,19.83
2018-05-19T03:30:57.799Z,18.87
2018-05-19T03:33:24.721Z,19.47
2018-05-19T03:35:50.976Z,18.10
2018-05-19T03:38:17.914Z,20.63
2018-05-19T03:40:44.827Z,21.80
2018-05-19T03:43:11.045Z,24.27
2018-05-19T03:45:37.272Z,29.87
2018-05-19T03:48:03.464Z,22.03
2018-05-19T03:50:29.671Z,21.93
2018-05-19T03:52:56.633Z,19.00
2018-05-19T03:55:23.536Z,21.03
2018-05-19T03:58:02.058Z,19.43
2018-05-19T04:00:40.693Z,22.00
2018-05-19T04:03:06.881Z,20.17
2018-05-19T04:05:33.087Z,19.77
2018-05-19T04:07:59.311Z,17.97
2018-05-19T04:10:25.521Z,24.13
2018-05-19T04:12:52.446Z,22.70
2018-05-19T04:15:18.615Z,23.20
2018-05-19T04:17:44.795Z,21.37
2018-05-19T04:20:10.968Z,23.00
2018-05-19T04:22:37.181Z,21.33
2018-05-19T04:25:03.374Z,23.87
2018-05-19T04:27:29.545Z,21.37
2018-05-19T04:29:56.459Z,22.43
2018-05-19T04:32:22.673Z,28.43
2018-05-19T04:34:48.834Z,24.17
2018-05-19T04:37:16.757Z,22.87
2018-05-19T04:39:42.965Z,21.03
2018-05-19T04:42:09.132Z,21.23
2018-05-19T04:44:35.759Z,24.30
2018-05-19T04:47:01.981Z,26.33
2018-05-19T04:49:28.200Z,25.90
2018-05-19T04:51:54.372Z,20.20
2018-05-19T04:54:21.303Z,19.00
2018-05-19T04:56:47.605Z,22.53
2018-05-19T04:59:14.554Z,25.90
2018-05-19T05:01:40.825Z,56.73
2018-05-19T05:04:07.891Z,27.97
2018-05-19T05:06:34.717Z,21.70
2018-05-19T05:09:01.691Z,32.53
2018-05-19T05:11:27.947Z,27.97
2018-05-19T05:13:54.303Z,25.53
2018-05-19T05:16:20.444Z,35.13
2018-05-19T05:18:46.627Z,35.87
2018-05-19T05:21:12.798Z,28.60
2018-05-19T05:23:38.980Z,24.10
2018-05-19T05:26:05.164Z,22.37
2018-05-19T05:28:32.113Z,26.30
2018-05-19T05:30:59.058Z,21.37
2018-05-19T05:33:26.033Z,22.33
2018-05-19T05:35:52.359Z,25.87
2018-05-19T05:38:18.560Z,19.60
2018-05-19T05:40:45.502Z,37.10
2018-05-19T05:43:11.819Z,17.93
2018-05-19T05:45:37.964Z,29.03
2018-05-19T05:48:04.160Z,21.77
2018-05-19T05:50:30.783Z,26.37
2018-05-19T05:52:57.060Z,27.07
2018-05-19T05:55:23.344Z,28.30
2018-05-19T05:57:49.517Z,27.60
2018-05-19T06:00:15.722Z,19.00
2018-05-19T06:02:41.962Z,26.00
2018-05-19T06:05:08.134Z,23.37
2018-05-19T06:07:34.370Z,21.53
2018-05-19T06:10:00.594Z,26.73
2018-05-19T06:12:26.814Z,24.13
2018-05-19T06:14:53.813Z,30.60
2018-05-19T06:17:20.012Z,24.53
2018-05-19T06:29:31.349Z,25.23
2018-05-19T06:31:57.532Z,23.00
2018-05-19T06:34:23.719Z,22.83
2018-05-19T06:36:49.941Z,20.17
2018-05-19T06:39:16.106Z,25.10
2018-05-19T06:41:42.635Z,25.27
2018-05-19T06:44:08.903Z,27.77
2018-05-19T06:46:35.811Z,23.53
2018-05-19T06:49:02.029Z,22.43
2018-05-19T06:51:28.252Z,19.80
2018-05-19T06:53:54.433Z,19.70
2018-05-19T06:56:20.648Z,29.43
2018-05-19T06:58:46.952Z,21.30
2018-05-19T07:01:13.151Z,21.83
2018-05-19T07:03:39.353Z,19.80
2018-05-19T07:06:06.314Z,17.13
2018-05-19T07:08:32.578Z,23.50
2018-05-19T07:10:58.898Z,21.27
2018-05-19T07:13:25.094Z,18.60
2018-05-19T07:15:52.033Z,15.03
2018-05-19T07:18:18.288Z,20.63
2018-05-19T07:20:44.557Z,13.73
2018-05-19T07:23:12.584Z,21.90
2018-05-19T07:25:38.813Z,17.77
2018-05-19T07:28:05.417Z,15.40
2018-05-19T07:30:31.982Z,15.97
2018-05-19T07:32:58.905Z,18.13
2018-05-19T07:35:25.145Z,18.27
2018-05-19T07:37:52.098Z,16.23
2018-05-19T07:40:19.043Z,13.17
2018-05-19T07:42:46.013Z,20.00
2018-05-19T07:45:13.323Z,15.80
2018-05-19T07:47:39.512Z,17.23
2018-05-19T07:50:05.713Z,19.87
2018-05-19T07:52:31.935Z,17.43
2018-05-19T07:54:58.963Z,18.73
2018-05-19T07:57:25.180Z,18.40
2018-05-19T07:59:51.376Z,16.80
2018-05-19T08:02:18.408Z,14.43
2018-05-19T08:04:44.597Z,17.17
2018-05-19T08:07:11.590Z,16.43
2018-05-19T08:09:38.214Z,15.00
2018-05-19T08:12:04.956Z,14.10
2018-05-19T08:14:31.173Z,17.83
2018-05-19T08:16:58.103Z,13.83
2018-05-19T08:19:25.142Z,13.37
2018-05-19T08:21:51.342Z,16.77
2018-05-19T08:24:17.571Z,17.93
2018-05-19T08:26:44.036Z,18.03
2018-05-19T08:29:10.307Z,14.80
2018-05-19T08:31:36.566Z,16.67
2018-05-19T08:34:03.492Z,19.13
2018-05-19T08:36:29.705Z,12.97
2018-05-19T08:38:55.949Z,18.53
2018-05-19T08:41:22.194Z,17.37
2018-05-19T08:43:48.441Z,14.73
2018-05-19T08:46:14.676Z,15.87
2018-05-19T08:48:40.926Z,14.53
2018-05-19T08:51:07.920Z,11.80
2018-05-19T08:53:34.122Z,13.20
2018-05-19T08:56:00.336Z,16.90
2018-05-19T08:58:27.280Z,14.10
2018-05-19T09:00:54.234Z,12.50
2018-05-19T09:03:20.415Z,17.37
2018-05-19T09:05:46.645Z,16.70
2018-05-19T09:08:13.757Z,13.83
2018-05-19T09:10:40.350Z,16.40
2018-05-19T09:13:06.659Z,18.10
2018-05-19T09:15:32.901Z,14.20
2018-05-19T09:17:59.105Z,20.47
2018-05-19T09:20:25.270Z,18.27
2018-05-19T09:22:51.445Z,16.17
2018-05-19T09:25:17.643Z,13.73
2018-05-19T09:27:44.618Z,13.67
2018-05-19T09:30:10.826Z,19.80
2018-05-19T09:32:37.803Z,17.73
2018-05-19T09:35:04.280Z,14.67
2018-05-19T09:37:31.246Z,14.27
2018-05-19T09:49:47.444Z,25.33
2018-05-19T09:52:13.617Z,15.90
2018-05-19T09:54:39.833Z,15.77
2018-05-19T09:57:06.062Z,17.47
2018-05-19T09:59:32.290Z,14.80
2018-05-19T10:01:58.569Z,14.53
2018-05-19T10:04:24.750Z,21.13
2018-05-19T10:06:50.975Z,19.23
2018-05-19T10:09:17.153Z,16.10
2018-05-19T10:11:43.410Z,11.67
2018-05-19T10:14:09.656Z,16.73
2018-05-19T10:16:35.852Z,12.70
2018-05-19T10:19:02.058Z,12.80
2018-05-19T10:21:29.033Z,13.40
2018-05-19T10:23:55.193Z,20.90
2018-05-19T10:26:21.380Z,16.50
2018-05-19T10:28:47.610Z,13.83
2018-05-19T10:31:13.885Z,13.57
2018-05-19T10:33:40.156Z,13.47
2018-05-19T10:36:06.650Z,14.07
2018-05-19T10:38:34.124Z,13.93
2018-05-19T10:41:00.773Z,13.93
2018-05-19T10:43:27.737Z,9.23
2018-05-19T10:45:54.723Z,12.30
2018-05-19T10:48:20.937Z,10.10
2018-05-19T10:50:47.241Z,13.13
2018-05-19T10:53:14.308Z,12.83
2018-05-19T10:55:40.505Z,12.83
2018-05-19T10:58:07.481Z,13.10
2018-05-19T11:00:33.731Z,14.10
2018-05-19T11:02:59.904Z,14.50
2018-05-19T11:05:26.889Z,13.10
2018-05-19T11:07:53.303Z,12.30
2018-05-19T11:10:20.249Z,12.40
2018-05-19T11:12:47.242Z,14.40
2018-05-19T11:15:13.563Z,13.27
2018-05-19T11:17:39.832Z,18.93
2018-05-19T11:20:06.800Z,9.73
2018-05-19T11:22:33.055Z,9.93
2018-05-19T11:24:59.305Z,14.10
2018-05-19T11:27:25.590Z,11.57
2018-05-19T11:29:52.536Z,14.30
2018-05-19T11:32:19.476Z,12.53
2018-05-19T11:34:46.427Z,9.20
2018-05-19T11:37:13.443Z,13.13
2018-05-19T11:39:39.764Z,15.70
2018-05-19T11:42:06.192Z,16.03
2018-05-19T11:44:32.500Z,12.67
2018-05-19T11:46:58.672Z,10.07
2018-05-19T11:49:24.982Z,10.33
2018-05-19T11:51:51.856Z,7.73
2018-05-19T11:54:19.063Z,9.67
2018-05-19T11:56:45.424Z,13.07
2018-05-19T11:59:11.815Z,10.70
2018-05-19T12:01:38.030Z,11.23
2018-05-19T12:04:04.269Z,10.77
2018-05-19T12:06:30.517Z,13.07
2018-05-19T12:08:56.743Z,10.70
2018-05-19T12:11:22.977Z,9.23
2018-05-19T12:13:49.399Z,12.63
2018-05-19T12:16:15.625Z,11.27
2018-05-19T12:18:41.859Z,13.20
2018-05-19T13:04:48.648Z,10.50
2018-05-19T13:07:14.884Z,10.70
2018-05-19T13:09:41.826Z,13.43
2018-05-19T13:12:08.075Z,7.97
2018-05-19T13:14:34.329Z,13.23
2018-05-19T13:17:01.273Z,9.30
2018-05-19T13:19:27.857Z,10.93
2018-05-19T13:21:55.014Z,12.47
2018-05-19T13:24:21.259Z,11.73
2018-05-19T13:26:47.826Z,11.37
2018-05-19T13:29:14.888Z,16.10
2018-05-19T13:31:41.855Z,8.83
2018-05-19T13:34:08.199Z,14.13
2018-05-19T13:36:34.520Z,11.80
2018-05-19T13:39:00.711Z,11.40
2018-05-19T13:41:27.792Z,9.00
2018-05-19T13:43:53.937Z,7.83
2018-05-19T13:46:20.173Z,9.87
2018-05-19T13:48:47.253Z,10.37
2018-05-19T13:51:14.311Z,8.13
2018-05-19T13:53:41.280Z,10.23
2018-05-19T13:56:08.226Z,9.60
2018-05-19T13:58:35.128Z,12.80
2018-05-19T14:01:01.386Z,10.33
2018-05-19T14:03:28.365Z,9.90
2018-05-19T14:05:54.569Z,8.47
2018-05-19T14:08:21.547Z,8.77
2018-05-19T14:10:47.750Z,9.43
2018-05-19T14:13:14.666Z,12.87
2018-05-19T14:15:40.865Z,10.20
2018-05-19T14:18:07.186Z,17.33
2018-05-19T14:20:33.425Z,10.57
2018-05-19T14:22:59.632Z,8.70
2018-05-19T14:25:25.907Z,9.23
2018-05-19T14:27:52.128Z,8.40
2018-05-19T14:30:18.366Z,10.50
2018-05-19T14:32:44.771Z,12.60
2018-05-19T14:35:11.449Z,6.57
2018-05-19T14:37:38.470Z,9.03
2018-05-19T14:40:04.679Z,9.20
2018-05-19T14:42:31.838Z,9.37
2018-05-19T14:44:58.022Z,8.90
2018-05-19T14:47:39.909Z,10.93
2018-05-19T14:50:06.944Z,11.60
2018-05-19T14:52:33.168Z,13.20
2018-05-19T14:54:59.397Z,8.90
2018-05-19T14:57:25.643Z,8.30
2018-05-19T14:59:53.050Z,7.90
2018-05-19T15:02:19.272Z,13.40
2018-05-19T15:04:45.489Z,10.80
2018-05-19T15:07:11.716Z,11.40
2018-05-19T15:09:37.915Z,11.47
2018-05-19T15:12:04.144Z,10.67
2018-05-19T15:14:31.101Z,10.13
2018-05-19T15:16:58.091Z,10.20
2018-05-19T15:19:24.410Z,15.50
2018-05-19T15:21:50.626Z,8.53
2018-05-19T15:24:16.831Z,12.10
2018-05-19T15:26:44.061Z,12.90
2018-05-19T15:29:10.314Z,8.33
2018-05-19T15:31:37.309Z,9.57
2018-05-19T15:34:03.632Z,6.40
2018-05-19T15:36:30.924Z,13.03
2018-05-19T15:38:58.243Z,7.43
2018-05-19T15:41:24.528Z,11.67
2018-05-19T15:43:51.464Z,11.13
2018-05-19T15:46:17.753Z,12.20
2018-05-19T15:48:43.939Z,10.77
2018-05-19T15:51:10.868Z,11.53
2018-05-19T15:53:37.084Z,6.10
2018-05-19T15:56:03.275Z,14.57
2018-05-19T15:58:29.505Z,7.37
2018-05-19T16:00:55.777Z,11.17
2018-05-19T16:03:22.065Z,9.50
2018-05-19T16:05:48.392Z,7.73
2018-05-19T16:08:14.614Z,10.57
2018-05-19T16:10:40.846Z,9.87
2018-05-19T16:13:07.060Z,8.03
2018-05-19T16:15:34.074Z,11.33
2018-05-19T16:18:00.314Z,12.30
2018-05-19T16:20:27.258Z,11.20
2018-05-19T16:22:53.553Z,9.70
2018-05-19T16:25:19.945Z,9.47
2018-05-19T16:27:46.279Z,8.73
2018-05-19T16:30:12.530Z,6.80
2018-05-19T16:32:38.930Z,10.23
2018-05-19T16:35:05.063Z,12.57
2018-05-19T16:37:32.044Z,10.10
2018-05-19T16:39:58.235Z,12.87
2018-05-19T16:42:25.245Z,12.07
2018-05-19T16:44:51.476Z,16.63
2018-05-19T16:47:17.722Z,13.40
2018-05-19T16:49:44.083Z,13.80
2018-05-19T16:52:10.362Z,10.53
2018-05-19T16:54:36.735Z,11.23
2018-05-19T16:57:02.965Z,9.70
2018-05-19T16:59:29.251Z,11.70
2018-05-19T17:01:55.470Z,11.30
2018-05-19T17:04:21.668Z,13.03
2018-05-19T17:06:47.927Z,13.73
2018-05-19T17:09:14.146Z,12.93
2018-05-19T17:11:40.427Z,9.70
2018-05-19T17:14:07.383Z,14.57
2018-05-19T17:16:34.330Z,11.10
2018-05-19T17:19:01.280Z,14.03
2018-05-19T17:21:29.054Z,11.67
2018-05-19T17:23:55.338Z,15.80
2018-05-19T17:26:21.589Z,11.33
2018-05-19T17:28:47.833Z,12.97
2018-05-19T17:31:14.868Z,10.97
2018-05-19T17:33:41.985Z,14.77
2018-05-19T17:36:08.163Z,15.73
2018-05-19T17:38:34.411Z,14.07
2018-05-19T17:41:00.655Z,11.33
2018-05-19T17:43:27.850Z,11.50
2018-05-19T17:45:54.105Z,17.47
2018-05-19T17:48:21.130Z,11.50
2018-05-19T17:50:47.329Z,13.30
2018-05-19T17:53:13.581Z,12.17
2018-05-19T17:55:39.856Z,22.50
2018-05-19T18:11:06.950Z,12.90
2018-05-19T18:13:33.205Z,14.17
2018-05-19T18:16:00.149Z,12.13
2018-05-19T18:18:27.083Z,15.20
2018-05-19T18:20:54.167Z,10.60
2018-05-19T18:33:05.451Z,18.47
2018-05-19T18:35:31.787Z,12.97
2018-05-19T18:37:58.053Z,12.60
2018-05-19T18:40:25.089Z,11.80
2018-05-19T18:42:52.130Z,14.00
2018-05-19T18:45:19.117Z,16.10
2018-05-19T18:47:45.335Z,22.23
2018-05-19T18:50:12.993Z,15.40
2018-05-19T18:52:52.301Z,14.10
2018-05-19T18:55:19.399Z,13.00
2018-05-19T18:57:45.744Z,15.67
2018-05-19T19:00:13.193Z,13.27
2018-05-19T19:02:41.229Z,14.30
2018-05-19T19:05:07.516Z,21.67
2018-05-19T19:07:33.765Z,13.90
2018-05-19T19:10:00.039Z,18.70
2018-05-19T19:12:26.380Z,14.63
2018-05-19T19:14:52.663Z,18.17
2018-05-19T19:17:18.933Z,21.10
2018-05-19T19:19:45.374Z,22.90
2018-05-19T19:22:12.355Z,25.40
2018-05-19T19:24:38.818Z,21.27
2018-05-19T19:27:05.308Z,21.30
2018-05-19T19:29:31.669Z,16.60
2018-05-19T19:31:57.901Z,13.70
2018-05-19T19:34:24.403Z,12.63
2018-05-19T19:36:50.593Z,15.80
2018-05-19T19:39:17.556Z,15.50
2018-05-19T19:41:43.831Z,20.90
2018-05-19T19:44:10.984Z,11.83
2018-05-19T19:46:38.681Z,16.67
2018-05-19T19:49:05.789Z,16.00
2018-05-19T19:51:32.064Z,12.73
2018-05-19T19:53:59.067Z,15.67
2018-05-19T19:56:25.433Z,19.93
2018-05-19T19:58:52.503Z,13.80
2018-05-19T20:01:19.795Z,14.27
2018-05-19T20:03:46.207Z,15.90
2018-05-19T20:06:12.434Z,12.53
2018-05-19T20:08:38.729Z,11.97
2018-05-19T20:11:05.770Z,14.40
2018-05-19T20:13:32.178Z,17.13
2018-05-19T20:15:58.430Z,15.97
2018-05-19T20:18:24.669Z,13.40
2018-05-19T20:20:51.654Z,12.70
2018-05-19T20:23:17.887Z,17.03
2018-05-19T20:25:44.142Z,16.47
2018-05-19T20:28:10.515Z,14.20
2018-05-19T20:30:37.480Z,14.80
2018-05-19T20:33:03.678Z,15.10
2018-05-19T20:35:29.914Z,19.10
2018-05-19T20:37:56.855Z,34.63
2018-05-19T20:40:23.809Z,10.83
2018-05-19T20:42:50.988Z,14.03
2018-05-19T20:45:17.743Z,16.30
2018-05-19T20:47:43.972Z,13.50
2018-05-19T20:50:10.211Z,10.80
2018-05-19T20:52:37.194Z,16.10
2018-05-19T20:55:03.567Z,13.90
2018-05-19T20:57:29.877Z,17.27
2018-05-19T20:59:56.912Z,12.43
2018-05-19T21:02:23.924Z,12.07
2018-05-19T21:04:50.946Z,13.10
2018-05-19T21:07:17.207Z,11.80
2018-05-19T21:09:43.429Z,13.90
2018-05-19T21:12:09.623Z,17.40
2018-05-19T21:14:35.824Z,11.20
2018-05-19T21:17:02.071Z,16.90
2018-05-19T21:19:28.407Z,12.70
2018-05-19T21:21:54.654Z,13.73
2018-05-19T21:24:20.846Z,15.17
2018-05-19T21:26:47.836Z,19.03
2018-05-19T21:29:14.058Z,15.77
2018-05-19T21:31:40.285Z,15.33
2018-05-19T21:34:06.541Z,13.60
2018-05-19T21:36:32.764Z,17.77
2018-05-19T21:38:58.976Z,21.63
2018-05-19T21:41:25.184Z,16.60
2018-05-19T21:43:51.370Z,12.80
2018-05-19T21:46:17.593Z,17.23
2018-05-19T21:48:43.780Z,14.03
2018-05-19T21:51:10.238Z,14.70
2018-05-19T21:53:36.417Z,13.43
2018-05-19T21:56:03.407Z,12.00
2018-05-19T21:58:29.605Z,13.70
2018-05-19T22:00:55.883Z,17.50
2018-05-19T22:03:22.120Z,15.67
2018-05-19T22:05:48.302Z,13.23
2018-05-19T22:08:14.539Z,16.37
2018-05-19T22:10:40.722Z,13.70
2018-05-19T22:13:07.031Z,17.83
2018-05-19T22:15:33.306Z,15.50
2018-05-19T22:17:59.519Z,14.17
2018-05-19T22:20:26.488Z,13.03
2018-05-19T22:22:52.697Z,11.57
2018-05-19T22:25:19.600Z,15.63
2018-05-19T22:27:45.852Z,16.93
2018-05-19T22:30:12.025Z,14.67
2018-05-19T22:32:38.221Z,16.70
2018-05-19T22:35:04.387Z,12.93
2018-05-19T22:37:30.603Z,11.70
2018-05-19T22:39:56.819Z,12.43
2018-05-19T22:42:23.760Z,14.10
2018-05-19T22:44:50.677Z,13.93
2018-05-19T22:47:16.925Z,16.27
2018-05-19T22:49:43.491Z,16.27
2018-05-19T22:52:11.222Z,13.17
2018-05-19T22:54:37.387Z,14.60
2018-05-19T22:57:03.594Z,15.80
2018-05-19T22:59:30.573Z,14.50
2018-05-19T23:01:56.773Z,12.50
2018-05-19T23:04:23.765Z,15.90
2018-05-19T23:06:49.947Z,14.87
2018-05-19T23:09:16.906Z,15.50
2018-05-19T23:11:43.135Z,15.53
2018-05-19T23:14:09.354Z,13.93
2018-05-19T23:16:35.893Z,14.13
2018-05-19T23:19:02.854Z,13.47
2018-05-19T23:21:29.081Z,12.20
2018-05-19T23:23:55.286Z,10.83
2018-05-19T23:26:22.191Z,15.47
2018-05-19T23:28:48.388Z,11.90
2018-05-19T23:31:15.142Z,18.13
2018-05-19T23:33:41.321Z,12.73
2018-05-19T23:36:07.511Z,11.53
2018-05-19T23:38:33.686Z,14.27
2018-05-19T23:41:00.616Z,15.27
2018-05-19T23:43:26.765Z,17.73
2018-05-19T23:45:53.750Z,13.90
2018-05-19T23:48:19.929Z,16.90
2018-05-19T23:50:46.891Z,14.23
2018-05-19T23:53:13.829Z,11.20
2018-05-19T23:55:40.756Z,15.93
2018-05-19T23:58:06.972Z,12.53
